Terminal Aerodrome Forecast
Issued by NWS

Home | Current Version | Previous Version | Text Only | Print | Product List | Glossary On
Versions: 1 2 3 4 5 6 7 8 9 10 11 12 13
997
FTPA31 PHFO 271854 AAB
TAFSTU
TAF AMD
NSTU 271854Z 2719/2818 12015KT P6SM VCSH SCT015 BKN040 OVC100
      TEMPO 2719/2720 2SM SHRA BKN012 OVC040=

USA.gov is the U.S. government's official web portal to all federal, state and local government web resources and services.